Airfield :
LOGIN :

Register | Disclaimer

   EN    FR    IT 

 










Legend :    VFR   Marginal VFR   IFR   Intensive IFR   Very Intensive IFR
Visi :
Ceiling :
>= 8 km
>= 3000ft
5 to 8 km
1000 to 3000 ft
1500m to 5 km
500 to 1000 ft
800 to 1500m
200 to 500 ft
< 800m
< 200 ft
Symbols :   Thunderstorms  Fog  Heavy snow  Heavy precipitations  Wind > 20 kt
SIGMETs :     Misc.  Thunderstorms  Icing  Turbulence  Mountain Waves  Volcanic Ashes







- Airport Elevation : 1649 ft
- IATA code : HHN


EDFH - Frankfurt-Hahn Rhineland-Palatinate

CURRENT METAR :
  • 262150Z 32006KT CAVOK 04/01 Q1030

EXPIRED METARs :
  • 262120Z 33004KT CAVOK 04/01 Q1030
  • 262050Z 30007KT 9999 SCT040 SCT045 04/00 Q1030
  • 262020Z 30005KT 9999 BKN037 04/00 Q1030
  • 261950Z 31003KT 270V340 9999 BKN035 04/01 Q1030
  • 261920Z 33005KT 9999 BKN030 04/M00 Q1030

TAF TAF EDFH
Valid from the 26 at 18:00 until the 27 at 18:00 UTC


261700Z 2618/2718 32008KT 9999 BKN035
BECMG 2620/2623 VRB03KT
PROB30
TEMPO 2700/2710 4000 BR BKN009
BECMG 2707/2710 35006KT
No reported NOTAMs for that airfield.



MET'MAP, your aeronautical weather chart ! - Copyright ORBIFLY December 2007 - Disclaimer

ORBIFLY MET'MAP TEAM :

Programming & Development : Alexandra Zaïnal
Concept & Development : Baudouin d'Aumeries
Co-Development & Prog : Marc-Olivier Méhu
Technical & hardware support : Manuel Goepfert

Contact : metmap@orbifly.com




SOURCES & CREDITS :

   NOAA